createdAt,value
2018-07-01T00:00:06.040Z,99.90
2018-07-01T00:02:34.633Z,99.90
2018-07-01T00:05:03.129Z,99.90
2018-07-01T00:07:31.580Z,99.90
2018-07-01T00:10:00.052Z,99.90
2018-07-01T00:12:28.434Z,99.90
2018-07-01T00:14:56.823Z,99.90
2018-07-01T00:17:25.169Z,99.90
2018-07-01T00:19:56.639Z,99.90
2018-07-01T00:22:25.281Z,99.90
2018-07-01T00:24:53.725Z,99.90
2018-07-01T00:27:22.219Z,99.90
2018-07-01T00:29:50.791Z,99.90
2018-07-01T00:32:19.221Z,99.90
2018-07-01T00:34:47.697Z,99.90
2018-07-01T00:37:16.223Z,99.90
2018-07-01T00:39:44.872Z,99.90
2018-07-01T00:42:13.379Z,99.90
2018-07-01T00:44:41.911Z,99.90
2018-07-01T00:47:10.316Z,99.90
2018-07-01T00:49:38.775Z,99.90
2018-07-01T00:52:07.209Z,99.90
2018-07-01T00:54:35.676Z,99.90
2018-07-01T00:57:04.061Z,99.90
2018-07-01T00:59:32.571Z,99.90
2018-07-01T01:02:01.056Z,99.90
2018-07-01T01:04:29.617Z,99.90
2018-07-01T01:06:58.016Z,99.90
2018-07-01T01:09:26.448Z,99.90
2018-07-01T01:11:54.893Z,99.90
2018-07-01T01:14:23.325Z,99.90
2018-07-01T01:16:51.745Z,99.90
2018-07-01T01:19:20.146Z,99.90
2018-07-01T01:21:48.620Z,99.90
2018-07-01T01:24:17.096Z,99.90
2018-07-01T01:26:45.553Z,99.90
2018-07-01T01:29:14.067Z,99.90
2018-07-01T01:31:42.555Z,99.90
2018-07-01T01:34:10.973Z,99.90
2018-07-01T01:36:40.576Z,99.90
2018-07-01T01:39:12.729Z,99.90
2018-07-01T01:41:47.024Z,99.90
2018-07-01T01:44:21.160Z,99.90
2018-07-01T01:46:57.100Z,99.90
2018-07-01T01:49:31.036Z,99.90
2018-07-01T01:52:07.875Z,99.90
2018-07-01T01:54:46.748Z,99.90
2018-07-01T01:57:25.882Z,99.90
2018-07-01T01:59:59.241Z,99.90
2018-07-01T02:02:33.799Z,99.90
2018-07-01T02:05:20.903Z,99.90
2018-07-01T02:07:55.911Z,99.90
2018-07-01T02:10:24.307Z,99.90
2018-07-01T02:12:52.704Z,99.90
2018-07-01T02:15:24.905Z,99.90
2018-07-01T02:17:54.171Z,99.90
2018-07-01T02:20:24.987Z,99.90
2018-07-01T02:23:56.410Z,99.90
2018-07-01T02:26:24.808Z,99.90
2018-07-01T02:28:53.424Z,99.90
2018-07-01T02:31:21.871Z,99.90
2018-07-01T02:33:50.253Z,99.90
2018-07-01T02:36:18.676Z,99.90
2018-07-01T02:38:47.015Z,99.90
2018-07-01T02:41:15.428Z,99.90
2018-07-01T02:43:43.774Z,99.90
2018-07-01T02:46:12.186Z,99.90
2018-07-01T02:48:40.588Z,99.90
2018-07-01T02:51:08.963Z,99.90
2018-07-01T02:53:37.391Z,99.90
2018-07-01T02:56:05.772Z,99.90
2018-07-01T02:58:34.092Z,99.90
2018-07-01T03:01:02.444Z,99.90
2018-07-01T03:03:30.808Z,99.90
2018-07-01T03:05:59.205Z,99.90
2018-07-01T03:08:27.810Z,99.90
2018-07-01T03:10:56.217Z,99.90
2018-07-01T03:13:24.671Z,99.90
2018-07-01T03:15:53.079Z,99.90
2018-07-01T03:18:21.447Z,99.90
2018-07-01T03:20:49.798Z,99.90
2018-07-01T03:23:18.175Z,99.90
2018-07-01T03:25:46.558Z,99.90
2018-07-01T03:28:14.940Z,99.90
2018-07-01T03:30:43.605Z,99.90
2018-07-01T03:33:12.042Z,99.90
2018-07-01T03:35:40.389Z,99.90
2018-07-01T03:38:08.765Z,99.90
2018-07-01T03:40:37.096Z,99.90
2018-07-01T03:43:05.720Z,99.90
2018-07-01T03:45:34.208Z,99.90
2018-07-01T03:48:02.655Z,99.90
2018-07-01T03:50:31.061Z,99.90
2018-07-01T03:52:59.366Z,99.90
2018-07-01T03:55:27.772Z,99.90
2018-07-01T03:57:56.199Z,99.90
2018-07-01T04:00:24.704Z,99.90
2018-07-01T04:02:53.019Z,99.90
2018-07-01T04:05:21.396Z,99.90
2018-07-01T04:07:49.937Z,99.90
2018-07-01T04:10:18.283Z,99.90
2018-07-01T04:12:46.684Z,99.90
2018-07-01T04:15:16.722Z,99.90
2018-07-01T04:17:45.150Z,99.90
2018-07-01T04:20:13.844Z,99.90
2018-07-01T04:22:42.275Z,99.90
2018-07-01T04:25:10.692Z,99.90
2018-07-01T04:27:39.141Z,99.90
2018-07-01T04:30:07.556Z,99.90
2018-07-01T04:32:36.013Z,99.90
2018-07-01T04:35:04.531Z,99.90
2018-07-01T04:37:33.023Z,99.90
2018-07-01T04:40:01.470Z,99.90
2018-07-01T04:42:29.894Z,99.90
2018-07-01T04:44:58.283Z,99.90
2018-07-01T04:47:26.676Z,99.90
2018-07-01T04:49:55.136Z,99.90
2018-07-01T04:52:23.618Z,99.90
2018-07-01T04:54:52.051Z,99.90
2018-07-01T04:57:20.432Z,99.90
2018-07-01T04:59:48.852Z,99.90
2018-07-01T05:02:17.270Z,99.90
2018-07-01T05:04:45.640Z,99.90
2018-07-01T05:07:14.112Z,99.90
2018-07-01T05:09:42.930Z,99.90
2018-07-01T05:12:13.293Z,99.90
2018-07-01T05:14:41.682Z,99.90
2018-07-01T05:17:10.161Z,99.90
2018-07-01T05:19:38.543Z,99.90
2018-07-01T05:22:06.940Z,99.90
2018-07-01T05:24:35.417Z,99.90
2018-07-01T05:27:03.952Z,99.90
2018-07-01T05:29:32.544Z,99.90
2018-07-01T05:32:01.151Z,99.90
2018-07-01T05:34:29.544Z,99.90
2018-07-01T05:37:00.192Z,99.90
2018-07-01T05:39:29.132Z,99.90
2018-07-01T05:41:57.575Z,99.90
2018-07-01T05:44:26.370Z,99.90
2018-07-01T05:46:54.830Z,99.90
2018-07-01T05:49:24.736Z,99.90
2018-07-01T05:51:53.473Z,99.90
2018-07-01T05:54:21.863Z,99.90
2018-07-01T05:56:50.343Z,99.90
2018-07-01T05:59:18.755Z,99.90
2018-07-01T06:01:47.153Z,99.90
2018-07-01T06:04:15.600Z,99.90
2018-07-01T06:06:44.464Z,99.90
2018-07-01T06:09:13.216Z,99.90
2018-07-01T06:11:43.906Z,99.90
2018-07-01T06:14:12.736Z,99.90
2018-07-01T06:16:41.579Z,99.90
2018-07-01T06:19:12.332Z,99.90
2018-07-01T06:21:44.676Z,99.90
2018-07-01T06:24:13.692Z,99.90
2018-07-01T06:26:43.083Z,99.90
2018-07-01T06:29:12.301Z,99.90
2018-07-01T06:31:41.850Z,99.90
2018-07-01T06:34:10.350Z,99.90
2018-07-01T06:36:38.760Z,99.90
2018-07-01T06:39:14.851Z,99.90
2018-07-01T06:41:43.354Z,99.90
2018-07-01T06:44:11.766Z,99.90
2018-07-01T06:46:40.174Z,99.90
2018-07-01T06:49:08.643Z,99.90
2018-07-01T06:51:37.076Z,99.90
2018-07-01T06:56:33.577Z,99.90
2018-07-01T06:59:01.943Z,99.90
2018-07-01T07:01:30.316Z,99.90
2018-07-01T07:03:58.764Z,99.90
2018-07-01T07:06:28.020Z,99.90
2018-07-01T07:08:56.462Z,99.90
2018-07-01T07:11:24.912Z,99.90
2018-07-01T07:13:53.386Z,99.90
2018-07-01T07:16:21.864Z,99.90
2018-07-01T07:18:50.259Z,99.90
2018-07-01T07:21:19.775Z,96.90
2018-07-01T07:23:48.155Z,93.50
2018-07-01T07:26:16.591Z,96.60
2018-07-01T07:28:45.021Z,95.90
2018-07-01T07:31:13.467Z,95.50
2018-07-01T07:33:41.863Z,92.00
2018-07-01T07:36:10.215Z,94.50
2018-07-01T07:38:38.572Z,86.20
2018-07-01T07:41:06.991Z,93.60
2018-07-01T07:43:35.483Z,84.00
2018-07-01T07:46:03.879Z,91.10
2018-07-01T07:48:32.335Z,90.70
2018-07-01T07:51:00.670Z,90.30
2018-07-01T07:53:29.063Z,86.90
2018-07-01T07:55:57.435Z,84.20
2018-07-01T07:58:25.832Z,85.60
2018-07-01T08:00:54.156Z,93.00
2018-07-01T08:03:22.828Z,80.40
2018-07-01T08:05:51.283Z,81.00
2018-07-01T08:08:19.713Z,84.00
2018-07-01T08:10:48.100Z,77.20
2018-07-01T08:13:16.543Z,70.70
2018-07-01T08:15:47.083Z,84.50
2018-07-01T08:18:15.630Z,79.60
2018-07-01T08:20:44.673Z,88.40
2018-07-01T08:23:13.381Z,75.40
2018-07-01T08:25:41.876Z,73.00
2018-07-01T08:28:10.217Z,71.80
2018-07-01T08:30:38.596Z,80.40
2018-07-01T08:33:07.059Z,73.10
2018-07-01T08:35:35.410Z,78.80
2018-07-01T08:40:53.001Z,80.30
2018-07-01T08:43:21.235Z,67.90
2018-07-01T08:45:49.678Z,70.70
2018-07-01T08:48:17.911Z,68.80
2018-07-01T08:53:17.417Z,70.90
2018-07-01T08:55:45.659Z,71.70
2018-07-01T08:58:14.009Z,64.30
2018-07-01T09:00:42.210Z,58.00
2018-07-01T09:03:10.428Z,64.40
2018-07-01T09:05:38.629Z,62.10
2018-07-01T09:08:14.786Z,67.20
2018-07-01T09:10:43.246Z,62.20
2018-07-01T09:13:11.466Z,62.30
2018-07-01T09:15:39.794Z,64.30
2018-07-01T09:18:10.590Z,61.40
2018-07-01T09:20:38.786Z,69.50
2018-07-01T09:23:06.998Z,65.10
2018-07-01T09:25:35.410Z,68.20
2018-07-01T09:28:15.275Z,73.70
2018-07-01T09:30:45.099Z,73.80
2018-07-01T09:33:15.130Z,69.50
2018-07-01T09:35:44.718Z,68.40
2018-07-01T09:38:17.523Z,59.10
2018-07-01T09:40:45.945Z,72.00
2018-07-01T09:43:14.445Z,63.60
2018-07-01T09:45:42.695Z,63.50
2018-07-01T09:48:10.934Z,59.80
2018-07-01T09:50:39.175Z,58.80
2018-07-01T09:53:07.557Z,67.60
2018-07-01T09:55:35.793Z,59.00
2018-07-01T09:58:04.113Z,60.50
2018-07-01T10:00:32.326Z,57.90
2018-07-01T10:03:23.829Z,59.40
2018-07-01T10:05:52.151Z,56.50
2018-07-01T10:08:20.425Z,66.50
2018-07-01T10:10:48.751Z,60.90
2018-07-01T10:13:17.011Z,57.60
2018-07-01T10:15:45.479Z,54.30
2018-07-01T10:18:13.934Z,58.70
2018-07-01T10:20:42.243Z,57.70
2018-07-01T10:23:10.524Z,66.20
2018-07-01T10:25:38.850Z,55.80
2018-07-01T10:28:07.143Z,60.90
2018-07-01T10:30:35.476Z,58.70
2018-07-01T10:33:03.722Z,55.40
2018-07-01T10:35:31.958Z,55.80
2018-07-01T10:38:00.350Z,52.30
2018-07-01T10:40:30.592Z,52.60
2018-07-01T10:42:58.898Z,50.80
2018-07-01T10:45:27.124Z,56.50
2018-07-01T10:47:55.763Z,54.60
2018-07-01T10:50:24.061Z,61.10
2018-07-01T10:53:12.236Z,62.80
2018-07-01T10:55:40.490Z,58.10
2018-07-01T10:58:10.798Z,56.20
2018-07-01T11:00:39.016Z,53.50
2018-07-01T11:03:08.049Z,59.70
2018-07-01T11:05:36.259Z,56.40
2018-07-01T11:08:16.239Z,56.10
2018-07-01T11:10:44.723Z,58.10
2018-07-01T11:13:13.101Z,58.40
2018-07-01T11:15:41.378Z,56.80
2018-07-01T11:18:09.660Z,54.40
2018-07-01T11:20:38.237Z,63.20
2018-07-01T11:23:06.486Z,61.80
2018-07-01T11:28:03.484Z,61.20
2018-07-01T11:30:39.599Z,57.00
2018-07-01T11:33:07.918Z,57.60
2018-07-01T11:35:36.325Z,60.30
2018-07-01T11:38:04.557Z,59.90
2018-07-01T11:40:32.822Z,59.90
2018-07-01T11:43:01.034Z,59.20
2018-07-01T11:45:29.254Z,53.10
2018-07-01T11:47:57.471Z,51.80
2018-07-01T11:50:44.270Z,56.20
2018-07-01T11:53:12.642Z,63.20
2018-07-01T11:55:40.930Z,56.20
2018-07-01T11:58:09.297Z,50.50
2018-07-01T12:00:37.685Z,54.70
2018-07-01T12:03:05.987Z,54.30
2018-07-01T12:05:34.372Z,50.10
2018-07-01T12:08:02.510Z,48.80
2018-07-01T12:10:31.370Z,55.20
2018-07-01T12:12:59.607Z,53.90
2018-07-01T12:17:55.789Z,57.70
2018-07-01T12:20:24.017Z,54.90
2018-07-01T12:22:52.393Z,54.70
2018-07-01T12:25:20.838Z,52.80
2018-07-01T12:27:49.222Z,50.90
2018-07-01T12:30:17.709Z,52.70
2018-07-01T12:32:46.746Z,58.10
2018-07-01T12:35:15.540Z,51.70
2018-07-01T12:37:44.870Z,47.50
2018-07-01T12:40:13.787Z,54.80
2018-07-01T12:42:42.318Z,50.70
2018-07-01T12:45:10.713Z,52.30
2018-07-01T12:47:39.120Z,48.00
2018-07-01T12:50:07.397Z,47.80
2018-07-01T12:52:35.617Z,50.70
2018-07-01T12:55:03.854Z,52.90
2018-07-01T12:57:32.069Z,50.60
2018-07-01T13:00:00.287Z,53.80
2018-07-01T13:02:28.530Z,52.30
2018-07-01T13:05:07.116Z,49.90
2018-07-01T13:07:35.410Z,49.60
2018-07-01T13:10:03.679Z,52.50
2018-07-01T13:12:31.900Z,47.10
2018-07-01T13:15:00.198Z,49.20
2018-07-01T13:17:28.499Z,50.90
2018-07-01T13:19:56.906Z,51.90
2018-07-01T13:22:25.115Z,50.40
2018-07-01T13:24:53.404Z,49.10
2018-07-01T13:27:21.690Z,50.40
2018-07-01T13:29:50.056Z,50.90
2018-07-01T13:32:18.382Z,47.70
2018-07-01T13:34:46.810Z,49.60
2018-07-01T13:37:15.543Z,46.00
2018-07-01T13:39:44.230Z,46.70
2018-07-01T13:42:13.112Z,46.60
2018-07-01T13:44:41.646Z,47.90
2018-07-01T13:47:09.867Z,53.50
2018-07-01T13:49:38.273Z,48.20
2018-07-01T13:52:06.771Z,50.50
2018-07-01T13:54:35.057Z,55.30
2018-07-01T13:57:03.411Z,51.10
2018-07-01T13:59:31.691Z,50.70
2018-07-01T14:01:59.925Z,53.20
2018-07-01T14:04:28.178Z,51.30
2018-07-01T14:06:56.582Z,51.20
2018-07-01T14:09:32.693Z,56.50
2018-07-01T14:12:01.182Z,57.00
2018-07-01T14:14:40.185Z,57.90
2018-07-01T14:17:08.480Z,54.40
2018-07-01T14:19:36.718Z,54.60
2018-07-01T14:22:05.003Z,64.50
2018-07-01T14:24:34.314Z,58.50
2018-07-01T14:27:02.665Z,56.20
2018-07-01T14:29:30.858Z,55.30
2018-07-01T14:32:14.117Z,57.40
2018-07-01T14:34:42.770Z,60.80
2018-07-01T14:37:11.163Z,62.90
2018-07-01T14:39:47.011Z,55.40
2018-07-01T14:42:15.705Z,59.20
2018-07-01T14:44:45.153Z,53.20
2018-07-01T14:47:13.625Z,56.70
2018-07-01T14:49:42.766Z,53.70
2018-07-01T14:52:11.685Z,59.20
2018-07-01T14:54:44.654Z,55.80
2018-07-01T14:57:13.071Z,54.50
2018-07-01T14:59:42.524Z,56.10
2018-07-01T15:02:16.387Z,59.10
2018-07-01T15:04:44.858Z,55.20
2018-07-01T15:07:13.211Z,60.00
2018-07-01T15:09:41.480Z,60.00
2018-07-01T15:12:09.802Z,58.40
2018-07-01T15:14:38.130Z,55.60
2018-07-01T15:17:06.452Z,57.00
2018-07-01T15:19:34.862Z,60.50
2018-07-01T15:22:03.120Z,60.10
2018-07-01T15:24:31.362Z,59.70
2018-07-01T15:26:59.641Z,63.00
2018-07-01T15:29:27.856Z,56.60
2018-07-01T15:31:56.165Z,58.20
2018-07-01T15:34:44.985Z,58.80
2018-07-01T15:37:13.361Z,61.50
2018-07-01T15:39:41.621Z,57.20
2018-07-01T15:42:14.674Z,59.20
2018-07-01T15:44:45.238Z,56.80
2018-07-01T15:47:14.798Z,58.90
2018-07-01T15:49:43.699Z,56.30
2018-07-01T15:52:12.002Z,55.10
2018-07-01T15:54:40.380Z,56.70
2018-07-01T15:57:14.575Z,56.50
2018-07-01T15:59:45.307Z,55.20
2018-07-01T16:02:18.358Z,56.80
2018-07-01T16:04:46.743Z,56.30
2018-07-01T16:07:17.242Z,55.70
2018-07-01T16:09:45.650Z,56.30
2018-07-01T16:12:14.415Z,59.90
2018-07-01T16:14:44.930Z,60.90
2018-07-01T16:17:14.657Z,60.30
2018-07-01T16:19:47.105Z,56.40
2018-07-01T16:22:21.184Z,56.80
2018-07-01T16:24:54.947Z,59.80
2018-07-01T16:27:29.487Z,57.60
2018-07-01T16:29:57.726Z,58.20
2018-07-01T16:32:25.965Z,61.00
2018-07-01T16:35:08.470Z,59.80
2018-07-01T16:37:55.223Z,60.70
2018-07-01T16:40:23.462Z,60.30
2018-07-01T16:42:51.833Z,59.40
2018-07-01T16:45:20.221Z,59.80
2018-07-01T16:47:54.546Z,61.60
2018-07-01T16:50:22.913Z,60.20
2018-07-01T16:52:52.204Z,60.80
2018-07-01T16:55:20.564Z,60.70
2018-07-01T16:58:08.433Z,61.60
2018-07-01T17:00:42.915Z,62.90
2018-07-01T17:03:11.150Z,58.80
2018-07-01T17:05:46.532Z,58.90
2018-07-01T17:08:17.192Z,60.30
2018-07-01T17:10:45.896Z,59.80
2018-07-01T17:13:14.725Z,61.10
2018-07-01T17:15:43.222Z,58.80
2018-07-01T17:18:11.501Z,59.70
2018-07-01T17:20:39.965Z,61.70
2018-07-01T17:23:08.647Z,59.80
2018-07-01T17:25:42.364Z,57.90
2018-07-01T17:28:10.678Z,58.40
2018-07-01T17:30:45.094Z,60.40
2018-07-01T17:33:19.045Z,63.10
2018-07-01T17:35:47.641Z,59.60
2018-07-01T17:38:16.002Z,60.30
2018-07-01T17:40:44.668Z,59.40
2018-07-01T17:43:13.218Z,60.90
2018-07-01T17:45:41.816Z,59.80
2018-07-01T17:48:11.251Z,61.50
2018-07-01T17:50:39.664Z,60.40
2018-07-01T17:53:08.050Z,62.20
2018-07-01T17:55:40.290Z,62.50
2018-07-01T17:58:16.657Z,61.00
2018-07-01T18:00:45.183Z,61.60
2018-07-01T18:03:17.003Z,63.00
2018-07-01T18:05:45.514Z,62.20
2018-07-01T18:08:15.973Z,63.80
2018-07-01T18:10:45.438Z,65.20
2018-07-01T18:13:14.227Z,65.30
2018-07-01T18:15:44.304Z,64.30
2018-07-01T18:18:14.067Z,66.00
2018-07-01T18:20:43.188Z,66.10
2018-07-01T18:23:44.889Z,67.50
2018-07-01T18:25:41.421Z,66.80
2018-07-01T18:28:22.701Z,66.50
2018-07-01T18:30:44.552Z,67.00
2018-07-01T18:33:12.902Z,67.70
2018-07-01T18:35:41.818Z,68.10
2018-07-01T18:38:10.492Z,70.30
2018-07-01T18:40:38.827Z,69.80
2018-07-01T18:43:07.360Z,67.80
2018-07-01T18:45:35.806Z,68.40
2018-07-01T18:48:09.125Z,69.20
2018-07-01T18:50:37.426Z,68.90
2018-07-01T18:53:05.940Z,71.50
2018-07-01T18:55:34.212Z,72.90
2018-07-01T18:58:07.626Z,74.70
2018-07-01T19:00:35.881Z,78.80
2018-07-01T19:03:06.386Z,78.40
2018-07-01T19:05:34.655Z,79.40
2018-07-01T19:08:02.933Z,80.30
2018-07-01T19:10:37.070Z,80.60
2018-07-01T19:13:05.546Z,83.80
2018-07-01T19:18:02.112Z,88.10
2018-07-01T19:20:31.199Z,92.50
2018-07-01T19:25:27.789Z,99.90
2018-07-01T19:27:55.976Z,99.90
2018-07-01T19:30:25.569Z,99.90
2018-07-01T19:32:54.430Z,99.90
2018-07-01T19:35:22.855Z,99.90
2018-07-01T19:37:51.394Z,99.90
2018-07-01T19:40:38.821Z,99.90
2018-07-01T19:43:07.678Z,99.90
2018-07-01T19:45:36.258Z,99.90
2018-07-01T19:48:05.395Z,99.90
2018-07-01T19:53:03.190Z,99.90
2018-07-01T19:55:31.794Z,99.90
2018-07-01T19:58:00.194Z,99.90
2018-07-01T20:00:29.122Z,99.90
2018-07-01T20:03:00.182Z,99.90
2018-07-01T20:05:43.587Z,99.90
2018-07-01T20:08:15.380Z,99.90
2018-07-01T20:10:46.621Z,99.90
2018-07-01T20:13:16.061Z,99.90
2018-07-01T20:18:12.850Z,99.90
2018-07-01T20:20:41.235Z,99.90
2018-07-01T20:23:09.606Z,99.90
2018-07-01T20:25:38.106Z,99.90
2018-07-01T20:28:09.064Z,99.90
2018-07-01T20:30:38.004Z,99.90
2018-07-01T20:33:07.642Z,99.90
2018-07-01T20:35:36.078Z,99.90
2018-07-01T20:38:04.721Z,99.90
2018-07-01T20:40:37.530Z,99.90
2018-07-01T20:43:06.047Z,99.90
2018-07-01T20:45:37.881Z,99.90
2018-07-01T20:48:06.248Z,99.90
2018-07-01T20:50:47.010Z,99.90
2018-07-01T20:53:15.585Z,99.90
2018-07-01T20:55:46.438Z,99.90
2018-07-01T20:58:16.357Z,99.90
2018-07-01T21:00:44.840Z,99.90
2018-07-01T21:03:13.177Z,99.90
2018-07-01T21:05:41.474Z,99.90
2018-07-01T21:08:11.403Z,99.90
2018-07-01T21:10:39.814Z,99.90
2018-07-01T21:13:08.430Z,99.90
2018-07-01T21:15:36.930Z,99.90
2018-07-01T21:18:06.295Z,99.90
2018-07-01T21:20:34.544Z,99.90
2018-07-01T21:23:02.813Z,99.90
2018-07-01T21:28:42.667Z,99.90
2018-07-01T21:31:11.005Z,99.90
2018-07-01T21:33:39.338Z,99.90
2018-07-01T21:36:07.759Z,99.90
2018-07-01T21:38:36.125Z,99.90
2018-07-01T21:41:04.339Z,99.90
2018-07-01T21:43:32.598Z,99.90
2018-07-01T21:46:00.811Z,99.90
2018-07-01T21:48:29.029Z,99.90
2018-07-01T21:50:57.246Z,99.90
2018-07-01T21:53:25.482Z,99.90
2018-07-01T21:58:21.816Z,99.90
2018-07-01T22:00:50.240Z,99.90
2018-07-01T22:03:18.621Z,99.90
2018-07-01T22:05:46.854Z,99.90
2018-07-01T22:08:15.380Z,99.90
2018-07-01T22:10:55.990Z,99.90
2018-07-01T22:14:35.725Z,99.90
2018-07-01T22:17:05.168Z,99.90
2018-07-01T22:19:33.677Z,99.90
2018-07-01T22:22:02.282Z,99.90
2018-07-01T22:24:31.696Z,99.90
2018-07-01T22:26:59.916Z,99.90
2018-07-01T22:29:28.113Z,99.90
2018-07-01T22:31:56.326Z,99.90
2018-07-01T22:34:24.822Z,99.90
2018-07-01T22:36:53.428Z,99.90
2018-07-01T22:39:24.801Z,99.90
2018-07-01T22:41:53.930Z,99.90
2018-07-01T22:44:22.242Z,99.90
2018-07-01T22:46:51.152Z,99.90
2018-07-01T22:49:19.375Z,99.90
2018-07-01T22:51:47.605Z,99.90
2018-07-01T22:54:15.812Z,99.90
2018-07-01T22:56:44.022Z,99.90
2018-07-01T22:59:12.234Z,99.90
2018-07-01T23:03:04.622Z,99.90
2018-07-01T23:05:44.413Z,99.90
2018-07-01T23:08:12.626Z,99.90
2018-07-01T23:10:40.835Z,99.90
2018-07-01T23:13:09.044Z,99.90
2018-07-01T23:15:37.262Z,99.90
2018-07-01T23:18:05.465Z,99.90
2018-07-01T23:20:33.749Z,99.90
2018-07-01T23:23:01.991Z,99.90
2018-07-01T23:25:30.194Z,99.90
2018-07-01T23:27:58.402Z,99.90
2018-07-01T23:30:26.606Z,99.90
2018-07-01T23:32:54.809Z,99.90
2018-07-01T23:35:23.013Z,99.90
2018-07-01T23:37:51.230Z,99.90
2018-07-01T23:40:19.433Z,99.90
2018-07-01T23:42:47.637Z,99.90
2018-07-01T23:45:16.547Z,99.90
2018-07-01T23:47:44.859Z,99.90
2018-07-01T23:50:13.106Z,99.90
2018-07-01T23:52:41.378Z,99.90
2018-07-01T23:55:09.962Z,99.90
2018-07-01T23:57:38.190Z,99.90
